createdAt,value
2023-02-15T00:03:01.098Z,15.20
2023-02-15T00:08:06.285Z,12.23
2023-02-15T00:13:09.877Z,11.80
2023-02-15T00:18:13.400Z,14.33
2023-02-15T00:23:18.303Z,11.40
2023-02-15T00:28:23.178Z,12.77
2023-02-15T00:33:27.026Z,15.17
2023-02-15T00:38:33.018Z,12.63
2023-02-15T00:43:37.459Z,17.97
2023-02-15T00:48:41.257Z,15.40
2023-02-15T00:53:46.569Z,14.17
2023-02-15T00:58:51.376Z,13.80
2023-02-15T01:03:55.132Z,13.47
2023-02-15T01:09:00.117Z,13.03
2023-02-15T01:14:04.176Z,13.27
2023-02-15T01:19:08.220Z,10.63
2023-02-15T01:24:15.679Z,12.83
2023-02-15T01:29:19.284Z,9.50
2023-02-15T01:34:22.842Z,12.23
2023-02-15T01:39:28.552Z,10.50
2023-02-15T01:44:49.521Z,10.30
2023-02-15T01:50:04.016Z,9.90
2023-02-15T01:55:11.081Z,9.70
2023-02-15T02:00:17.624Z,10.00
2023-02-15T02:05:25.104Z,10.50
2023-02-15T02:10:30.863Z,12.50
2023-02-15T02:15:44.822Z,12.77
2023-02-15T02:21:19.880Z,8.30
2023-02-15T02:27:03.298Z,11.80
2023-02-15T02:32:37.345Z,10.50
2023-02-15T02:37:53.440Z,10.20
2023-02-15T02:43:02.733Z,9.67
2023-02-15T02:48:10.128Z,11.23
2023-02-15T02:53:15.072Z,11.10
2023-02-15T02:58:23.205Z,10.67
2023-02-15T03:03:32.043Z,9.17
2023-02-15T03:08:44.687Z,10.73
2023-02-15T03:13:50.635Z,11.30
2023-02-15T03:18:59.073Z,14.53
2023-02-15T03:24:11.163Z,12.03
2023-02-15T03:29:16.629Z,9.47
2023-02-15T03:34:21.050Z,14.20
2023-02-15T03:39:32.120Z,13.27
2023-02-15T03:44:44.125Z,10.43
2023-02-15T03:49:52.600Z,9.37
2023-02-15T03:54:58.176Z,9.10
2023-02-15T04:00:20.963Z,6.20
2023-02-15T04:05:24.520Z,12.60
2023-02-15T04:10:47.201Z,16.73
2023-02-15T04:16:07.656Z,14.40
2023-02-15T04:21:31.298Z,14.30
2023-02-15T04:26:36.226Z,9.93
2023-02-15T04:31:39.875Z,8.60
2023-02-15T04:36:43.906Z,8.60
2023-02-15T04:41:48.925Z,8.67
2023-02-15T04:46:52.487Z,8.80
2023-02-15T04:51:56.343Z,9.57
2023-02-15T04:57:01.301Z,8.10
2023-02-15T05:02:05.446Z,12.10
2023-02-15T05:07:09.026Z,9.83
2023-02-15T05:12:15.591Z,10.33
2023-02-15T05:17:19.105Z,13.90
2023-02-15T05:22:22.680Z,11.93
2023-02-15T05:27:45.170Z,11.50
2023-02-15T05:32:48.704Z,11.80
2023-02-15T05:37:52.327Z,12.37
2023-02-15T05:42:58.386Z,9.33
2023-02-15T05:48:01.907Z,9.37
2023-02-15T05:53:05.446Z,9.17
2023-02-15T05:58:10.338Z,8.67
2023-02-15T06:03:13.913Z,12.00
2023-02-15T06:08:17.613Z,12.33
2023-02-15T06:13:22.556Z,12.73
2023-02-15T06:18:26.267Z,15.87
2023-02-15T06:23:29.855Z,12.03
2023-02-15T06:28:34.794Z,10.70
2023-02-15T06:33:39.139Z,12.07
2023-02-15T06:38:42.688Z,9.77
2023-02-15T06:43:48.438Z,12.83
2023-02-15T06:48:52.007Z,11.63
2023-02-15T06:53:55.502Z,10.50
2023-02-15T06:59:00.420Z,13.73
2023-02-15T07:04:03.909Z,13.87
2023-02-15T07:09:07.476Z,12.47
2023-02-15T07:14:12.419Z,12.17
2023-02-15T07:19:15.984Z,10.20
2023-02-15T07:24:19.514Z,10.87
2023-02-15T07:29:24.696Z,11.83
2023-02-15T07:34:28.212Z,9.67
2023-02-15T07:39:31.808Z,8.87
2023-02-15T07:44:36.763Z,12.13
2023-02-15T07:49:40.571Z,9.67
2023-02-15T07:54:44.120Z,11.00
2023-02-15T07:59:49.060Z,9.47
2023-02-15T08:04:52.665Z,9.30
2023-02-15T08:09:56.317Z,8.60
2023-02-15T08:15:01.198Z,9.97
2023-02-15T08:20:05.396Z,10.57
2023-02-15T08:25:09.188Z,9.30
2023-02-15T08:30:16.159Z,10.10
2023-02-15T08:35:19.737Z,10.80
2023-02-15T08:40:23.323Z,9.00
2023-02-15T08:45:28.339Z,10.00
2023-02-15T08:50:32.050Z,7.83
2023-02-15T08:55:36.037Z,9.87
2023-02-15T09:00:40.982Z,11.93
2023-02-15T09:05:44.939Z,10.47
2023-02-15T09:10:48.564Z,9.30
2023-02-15T09:16:00.520Z,9.87
2023-02-15T09:21:11.733Z,7.63
2023-02-15T09:26:16.965Z,8.60
2023-02-15T09:31:23.608Z,9.13
2023-02-15T09:36:29.841Z,9.13
2023-02-15T09:41:46.160Z,7.03
2023-02-15T09:47:17.589Z,9.77
2023-02-15T09:52:48.130Z,7.83
2023-02-15T09:57:59.488Z,7.33
2023-02-15T10:03:17.998Z,7.33
2023-02-15T10:08:51.048Z,8.67
2023-02-15T10:14:05.436Z,7.47
2023-02-15T10:19:21.194Z,7.37
2023-02-15T10:24:43.902Z,8.73
2023-02-15T10:30:02.001Z,9.73
2023-02-15T10:35:18.257Z,9.53
2023-02-15T10:40:30.540Z,9.50
2023-02-15T10:45:45.393Z,6.53
2023-02-15T10:50:53.300Z,8.20
2023-02-15T10:56:03.895Z,10.33
2023-02-15T11:01:15.960Z,7.67
2023-02-15T11:06:23.706Z,8.90
2023-02-15T11:11:31.300Z,7.67
2023-02-15T11:16:38.635Z,9.00
2023-02-15T11:21:48.112Z,8.17
2023-02-15T11:26:57.618Z,7.67
2023-02-15T11:32:05.998Z,8.37
2023-02-15T11:37:16.502Z,8.90
2023-02-15T11:42:23.200Z,7.87
2023-02-15T11:47:26.878Z,8.60
2023-02-15T11:52:31.919Z,8.37
2023-02-15T11:57:41.388Z,7.50
2023-02-15T12:02:50.255Z,5.73
2023-02-15T12:08:02.552Z,7.60
2023-02-15T12:13:15.567Z,6.70
2023-02-15T12:18:35.995Z,7.17
2023-02-15T12:23:49.677Z,7.20
2023-02-15T12:28:55.448Z,8.77
2023-02-15T12:34:02.730Z,7.13
2023-02-15T12:39:23.684Z,6.63
2023-02-15T12:44:29.920Z,9.47
2023-02-15T12:49:35.051Z,7.93
2023-02-15T12:54:42.896Z,8.00
2023-02-15T12:59:51.822Z,7.33
2023-02-15T13:04:57.190Z,6.97
2023-02-15T13:10:02.295Z,7.83
2023-02-15T13:15:25.844Z,5.83
2023-02-15T13:20:31.038Z,6.77
2023-02-15T13:25:45.943Z,7.67
2023-02-15T13:30:51.026Z,5.83
2023-02-15T13:36:04.630Z,6.30
2023-02-15T13:41:15.310Z,8.87
2023-02-15T13:46:34.606Z,7.13
2023-02-15T13:51:46.571Z,8.00
2023-02-15T13:57:02.980Z,8.77
2023-02-15T14:02:37.278Z,7.93
2023-02-15T14:07:57.682Z,6.10
2023-02-15T14:13:27.132Z,7.23
2023-02-15T14:18:38.170Z,9.40
2023-02-15T14:23:54.959Z,8.07
2023-02-15T14:29:08.896Z,7.90
2023-02-15T14:34:23.257Z,9.37
2023-02-15T14:39:51.561Z,6.57
2023-02-15T14:45:02.865Z,7.43
2023-02-15T14:50:55.303Z,6.07
2023-02-15T14:56:22.306Z,8.40
2023-02-15T15:01:31.688Z,10.10
2023-02-15T15:06:38.406Z,6.60
2023-02-15T15:11:45.375Z,7.13
2023-02-15T15:16:53.182Z,7.80
2023-02-15T15:21:58.981Z,6.27
2023-02-15T15:27:35.953Z,5.53
2023-02-15T15:32:44.710Z,7.17
2023-02-15T15:38:18.556Z,6.83
2023-02-15T15:43:37.601Z,7.47
2023-02-15T15:48:43.461Z,6.87
2023-02-15T15:53:52.108Z,7.83
2023-02-15T15:58:58.265Z,8.37
2023-02-15T16:04:04.063Z,6.63
2023-02-15T16:09:17.616Z,6.00
2023-02-15T16:14:28.726Z,7.10
2023-02-15T16:19:36.843Z,6.70
2023-02-15T16:25:02.445Z,7.77
2023-02-15T16:30:30.313Z,8.60
2023-02-15T16:35:36.280Z,6.00
2023-02-15T16:40:54.611Z,8.23
2023-02-15T16:46:08.953Z,8.53
2023-02-15T16:51:22.715Z,9.13
2023-02-15T16:56:29.875Z,6.30
2023-02-15T17:01:35.295Z,7.13
2023-02-15T17:06:40.363Z,8.70
2023-02-15T17:11:45.324Z,6.73
2023-02-15T17:16:51.603Z,9.00
2023-02-15T17:21:58.695Z,8.80
2023-02-15T17:27:05.869Z,10.23
2023-02-15T17:32:20.401Z,8.20
2023-02-15T17:37:31.175Z,10.40
2023-02-15T17:42:34.713Z,7.43
2023-02-15T17:47:38.462Z,8.63
2023-02-15T17:52:43.430Z,7.83
2023-02-15T17:57:47.021Z,7.70
2023-02-15T18:03:09.362Z,7.50
2023-02-15T18:08:36.475Z,5.60
2023-02-15T18:13:40.053Z,5.17
2023-02-15T18:18:45.455Z,7.47
2023-02-15T18:23:50.525Z,6.43
2023-02-15T18:28:54.722Z,6.40
2023-02-15T18:34:00.776Z,6.73
2023-02-15T18:39:09.047Z,7.57
2023-02-15T18:44:13.295Z,6.67
2023-02-15T18:49:16.852Z,6.03
2023-02-15T18:54:24.076Z,7.63
2023-02-15T18:59:30.450Z,7.57
2023-02-15T19:04:34.082Z,6.63
2023-02-15T19:09:41.002Z,6.50
2023-02-15T19:14:44.811Z,7.60
2023-02-15T19:19:49.137Z,6.57
2023-02-15T19:24:55.644Z,7.83
2023-02-15T19:30:00.589Z,6.83
2023-02-15T19:35:05.080Z,5.53
2023-02-15T19:40:21.193Z,8.17
2023-02-15T19:45:27.038Z,6.80
2023-02-15T19:50:32.721Z,5.90
2023-02-15T19:55:37.862Z,7.10
2023-02-15T20:00:41.883Z,7.33
2023-02-15T20:05:46.937Z,5.67
2023-02-15T20:10:52.030Z,6.87
2023-02-15T20:15:55.702Z,5.53
2023-02-15T20:21:00.350Z,8.87
2023-02-15T20:26:15.171Z,5.80
2023-02-15T20:31:20.371Z,4.50
2023-02-15T20:36:24.684Z,5.30
2023-02-15T20:41:39.864Z,6.67
2023-02-15T20:46:43.506Z,8.00
2023-02-15T20:51:48.060Z,7.70
2023-02-15T20:56:54.165Z,7.80
2023-02-15T21:02:02.099Z,8.83
2023-02-15T21:07:06.053Z,6.83
2023-02-15T21:12:14.757Z,7.33
2023-02-15T21:17:18.522Z,7.03
2023-02-15T21:22:23.096Z,5.83
2023-02-15T21:27:28.225Z,4.60
2023-02-15T21:32:31.949Z,3.80
2023-02-15T21:37:38.826Z,5.30
2023-02-15T21:43:00.969Z,5.40
2023-02-15T21:48:05.294Z,5.40
2023-02-15T21:53:13.137Z,4.30
2023-02-15T21:58:21.678Z,4.70
2023-02-15T22:03:25.994Z,4.60
2023-02-15T22:08:29.585Z,4.00
2023-02-15T22:13:35.180Z,4.80
2023-02-15T22:18:38.804Z,4.13
2023-02-15T22:23:42.375Z,4.77
2023-02-15T22:28:47.286Z,4.00
2023-02-15T22:33:51.280Z,4.50
2023-02-15T22:38:55.693Z,4.27
2023-02-15T22:44:00.766Z,3.67
2023-02-15T22:49:04.286Z,4.47
2023-02-15T22:54:08.036Z,5.27
2023-02-15T22:59:19.315Z,4.97
2023-02-15T23:04:25.027Z,4.50
2023-02-15T23:09:28.611Z,3.60
2023-02-15T23:14:36.178Z,3.97
2023-02-15T23:19:39.711Z,3.47
2023-02-15T23:24:43.612Z,3.77
2023-02-15T23:29:48.550Z,3.20
2023-02-15T23:34:52.165Z,3.63
2023-02-15T23:40:13.215Z,5.40
2023-02-15T23:45:24.687Z,4.00
2023-02-15T23:50:29.874Z,4.03
2023-02-15T23:55:36.892Z,3.17
